• Join FlightAware (Why Join?)
  • Login
  • US Flag 
Gobble Gobble! 
04:35AM EST


 

Airport Tracker/Info


-or-


 

Live Flight TrackerFlight Track Log ✈ GJS3649 ✈ 02-Sep-2013 ✈ KMSN - KORD

Flight Track Log - Related Links

Times and Time Zones

All times are in EDT time to prevent confusion due to time zone crossing. See the GJS3649 flight status page for this flight to view local times or setup timezone preferences in your user account.

Time Position Orientation Groundspeed Altitude Reporting Facility
EDT Latitude Longitude Course Direction KTS MPH feet Rate Location/Type
08:32AM 43.1789 -89.3969 163° South 218 251 3,600  Level Chicago Center
08:33AM 43.1011 -89.4142 189° South 266 306 6,700 2,820 Climbing Chicago Center
08:34AM 42.8390 -89.2167 180° South  Level FlightAware Approximate
08:34AM 43.0236 -89.3669 156° South 299 344 9,400  Level Chicago Center
08:35AM 42.7644 -89.1891 164° South  Level FlightAware Approximate
08:35AM 42.9394 -89.3214 158° South 318 366 11,000  Level Chicago Center
08:36AM 42.6902 -89.1583 163° South  Level FlightAware Approximate
08:36AM 42.8417 -89.2656 157° South 371 427 11,000  Level Chicago Center
08:37AM 42.6148 -89.1269 163° South  Level FlightAware Approximate
08:37AM 42.7450 -89.2111 158° South 377 434 11,000  Level Chicago Center
08:38AM 42.6528 -89.1597 158° South 361 415 10,400 -1,140 Descending Chicago Center
08:39AM 42.5733 -89.1142 157° South 318 366 8,800 -1,320 Descending Chicago Center
08:40AM 42.5306 -89.0172 121° Southeast 316 364 7,800 -900 Descending Chicago Center
08:41AM 42.4997 -88.9114 112° Southeast 306 352 7,000 -420 Descending Chicago Center
08:42AM 42.4689 -88.8083 112° Southeast 298 343 7,000  Level Chicago Center
08:43AM 42.4322 -88.6939 113° Southeast 287 330 7,000  Level Chicago Center
08:44AM 42.4011 -88.5925 113° Southeast 289 333 7,000  Level Chicago Center
08:45AM 42.3658 -88.4914 115° Southeast 295 339 7,000  Level Chicago Center
08:46AM 42.3108 -88.4031 130° Southeast 298 343 7,000  Level Chicago Center
08:47AM 42.2567 -88.3200 131° Southeast 296 341 7,000  Level Chicago Center
08:48AM 42.2022 -88.2375 132° Southeast 295 339 7,000  Level Chicago Center
08:49AM 42.1483 -88.1522 130° Southeast 298 343 7,000  Level Chicago Center
08:50AM 42.1078 -88.0597 121° Southeast 297 342 7,000  Level Chicago Center
08:51AM 42.0931 -87.9583 101° East 277 319 7,000  Level Chicago Center
08:52AM 42.0903 -87.8764 93° East 226 260 7,000 -420 Level Chicago Center
08:53AM 42.0894 -87.7967 91° East 214 246 6,200 -1,260 Descending Chicago Center
08:54AM 42.0808 -87.7233 99° East 220 253 4,500 -1,620 Descending Chicago Center
08:55AM 42.0333 -87.7667 214° Southwest 196 226 2,700 -1,260 Descending Chicago TRACON
08:56AM 42.0000 -87.8333 236° Southwest 164 189 1,800 -900 Descending Chicago TRACON
08:57AM 42.0000 -87.8833 270° West 147 169 1,000 -840 Descending Chicago TRACON